createdAt,value
2022-12-19T00:01:36.785Z,20.02
2022-12-19T00:04:09.407Z,18.63
2022-12-19T00:06:37.995Z,20.75
2022-12-19T00:09:10.447Z,15.63
2022-12-19T00:11:38.870Z,19.30
2022-12-19T00:14:06.212Z,19.50
2022-12-19T00:16:33.246Z,20.02
2022-12-19T00:19:00.967Z,19.40
2022-12-19T00:21:29.628Z,18.45
2022-12-19T00:23:56.752Z,18.45
2022-12-19T00:26:26.589Z,18.02
2022-12-19T00:28:55.144Z,16.92
2022-12-19T00:31:24.998Z,21.77
2022-12-19T00:33:51.965Z,19.95
2022-12-19T00:36:38.970Z,20.48
2022-12-19T00:39:08.388Z,20.45
2022-12-19T00:41:37.267Z,21.30
2022-12-19T00:44:10.245Z,22.73
2022-12-19T00:46:37.384Z,24.92
2022-12-19T00:49:04.974Z,18.38
2022-12-19T00:51:33.866Z,21.10
2022-12-19T00:54:01.535Z,24.60
2022-12-19T00:56:37.269Z,20.17
2022-12-19T00:59:05.474Z,18.52
2022-12-19T01:01:38.026Z,20.45
2022-12-19T01:06:53.489Z,20.88
2022-12-19T01:09:21.928Z,21.23
2022-12-19T01:12:07.326Z,21.05
2022-12-19T01:14:34.405Z,20.02
2022-12-19T01:17:01.132Z,20.90
2022-12-19T01:19:28.383Z,20.60
2022-12-19T01:21:55.238Z,21.70
2022-12-19T01:24:22.289Z,21.52
2022-12-19T01:26:49.060Z,20.13
2022-12-19T01:29:15.780Z,21.17
2022-12-19T01:31:42.627Z,25.38
2022-12-19T01:34:09.494Z,23.23
2022-12-19T01:36:40.228Z,22.20
2022-12-19T01:39:07.638Z,22.38
2022-12-19T01:41:34.597Z,22.73
2022-12-19T01:44:02.286Z,22.73
2022-12-19T01:46:50.664Z,21.80
2022-12-19T01:49:29.362Z,21.85
2022-12-19T01:51:59.106Z,21.83
2022-12-19T01:54:31.835Z,23.75
2022-12-19T01:56:59.441Z,23.67
2022-12-19T01:59:30.041Z,22.55
2022-12-19T02:02:02.264Z,25.77
2022-12-19T02:04:32.539Z,25.67
2022-12-19T02:07:00.135Z,24.52
2022-12-19T02:09:34.354Z,27.48
2022-12-19T02:12:01.275Z,23.83
2022-12-19T02:14:28.313Z,23.83
2022-12-19T02:17:03.354Z,24.45
2022-12-19T02:20:29.425Z,22.65
2022-12-19T02:23:36.540Z,24.10
2022-12-19T02:26:53.893Z,25.42
2022-12-19T02:29:30.494Z,24.98
2022-12-19T02:32:21.697Z,23.42
2022-12-19T02:35:08.471Z,27.23
2022-12-19T02:37:39.386Z,23.08
2022-12-19T02:40:11.145Z,25.85
2022-12-19T02:42:44.375Z,26.58
2022-12-19T02:45:22.758Z,26.50
2022-12-19T02:47:56.289Z,26.95
2022-12-19T02:50:23.341Z,24.75
2022-12-19T02:52:50.187Z,25.48
2022-12-19T02:55:20.814Z,24.38
2022-12-19T02:58:09.820Z,25.15
2022-12-19T03:00:42.778Z,26.42
2022-12-19T03:03:15.772Z,26.45
2022-12-19T03:06:09.097Z,24.92
2022-12-19T03:08:47.955Z,25.45
2022-12-19T03:11:15.762Z,26.98
2022-12-19T03:13:54.719Z,28.75
2022-12-19T03:16:21.571Z,26.15
2022-12-19T03:18:48.478Z,26.42
2022-12-19T03:21:22.424Z,26.58
2022-12-19T03:23:51.128Z,28.10
2022-12-19T03:26:22.164Z,25.23
2022-12-19T03:28:54.379Z,26.80
2022-12-19T03:31:23.854Z,29.17
2022-12-19T03:33:55.934Z,29.20
2022-12-19T03:36:28.066Z,30.17
2022-12-19T03:38:56.237Z,28.20
2022-12-19T03:41:45.086Z,27.80
2022-12-19T03:44:14.311Z,29.73
2022-12-19T03:46:44.021Z,29.27
2022-12-19T03:49:10.961Z,27.70
2022-12-19T03:52:16.505Z,29.25
2022-12-19T03:54:52.530Z,28.35
2022-12-19T03:57:52.983Z,28.27
2022-12-19T04:00:20.887Z,27.92
2022-12-19T04:02:50.277Z,29.58
2022-12-19T04:05:25.698Z,29.27
2022-12-19T04:07:55.600Z,30.40
2022-12-19T04:10:25.191Z,29.77
2022-12-19T04:12:56.649Z,33.38
2022-12-19T04:15:32.366Z,30.48
2022-12-19T04:18:00.206Z,30.13
2022-12-19T04:20:27.697Z,31.40
2022-12-19T04:23:00.454Z,27.65
2022-12-19T04:25:32.831Z,33.03
2022-12-19T04:28:06.770Z,31.55
2022-12-19T04:30:36.493Z,33.22
2022-12-19T04:33:04.235Z,30.77
2022-12-19T04:35:31.884Z,30.17
2022-12-19T04:37:58.770Z,28.55
2022-12-19T04:40:25.579Z,27.23
2022-12-19T04:42:52.449Z,30.35
2022-12-19T04:45:19.281Z,33.22
2022-12-19T04:47:46.079Z,29.45
2022-12-19T04:50:12.979Z,31.40
2022-12-19T04:52:39.978Z,30.90
2022-12-19T04:55:07.813Z,32.60
2022-12-19T04:57:34.578Z,29.58
2022-12-19T05:00:04.009Z,29.33
2022-12-19T05:02:31.190Z,28.23
2022-12-19T05:04:58.132Z,30.38
2022-12-19T05:07:24.906Z,35.50
2022-12-19T05:09:51.610Z,34.38
2022-12-19T05:12:18.471Z,30.60
2022-12-19T05:14:45.854Z,34.83
2022-12-19T05:17:12.688Z,31.13
2022-12-19T05:19:39.431Z,32.55
2022-12-19T05:22:06.301Z,31.27
2022-12-19T05:24:33.132Z,34.92
2022-12-19T05:27:00.267Z,33.67
2022-12-19T05:29:27.101Z,36.10
2022-12-19T05:31:53.955Z,31.63
2022-12-19T05:34:20.936Z,33.25
2022-12-19T05:36:47.668Z,34.72
2022-12-19T05:39:14.483Z,32.70
2022-12-19T05:41:41.638Z,28.95
2022-12-19T05:44:09.687Z,34.28
2022-12-19T05:46:36.713Z,34.70
2022-12-19T05:49:03.635Z,32.60
2022-12-19T05:51:31.050Z,33.30
2022-12-19T05:53:57.805Z,32.08
2022-12-19T05:56:24.654Z,33.03
2022-12-19T05:58:51.816Z,29.55
2022-12-19T06:01:21.495Z,32.85
2022-12-19T06:03:49.364Z,33.63
2022-12-19T06:06:18.993Z,36.38
2022-12-19T06:08:45.954Z,34.38
2022-12-19T06:11:14.068Z,35.38
2022-12-19T06:13:41.473Z,32.53
2022-12-19T06:16:13.138Z,37.03
2022-12-19T06:18:44.713Z,37.25
2022-12-19T06:21:20.301Z,35.97
2022-12-19T06:23:47.544Z,32.15
2022-12-19T06:26:19.395Z,33.72
2022-12-19T06:28:48.195Z,35.47
2022-12-19T06:31:15.984Z,38.85
2022-12-19T06:33:42.825Z,37.47
2022-12-19T06:36:16.953Z,37.22
2022-12-19T06:41:29.915Z,38.60
2022-12-19T06:44:06.552Z,33.47
2022-12-19T06:46:33.886Z,37.92
2022-12-19T06:49:01.533Z,36.28
2022-12-19T06:51:29.057Z,38.80
2022-12-19T06:53:56.036Z,35.00
2022-12-19T06:56:23.175Z,35.78
2022-12-19T06:58:50.672Z,39.10
2022-12-19T07:01:41.218Z,40.63
2022-12-19T07:04:09.717Z,39.08
2022-12-19T07:06:36.621Z,36.35
2022-12-19T07:09:03.399Z,35.28
2022-12-19T07:11:30.143Z,39.88
2022-12-19T07:13:56.901Z,38.85
2022-12-19T07:16:24.690Z,34.55
2022-12-19T07:18:51.570Z,40.47
2022-12-19T07:21:18.407Z,41.20
2022-12-19T07:23:45.416Z,38.90
2022-12-19T07:26:12.502Z,37.60
2022-12-19T07:28:39.637Z,40.05
2022-12-19T07:31:06.446Z,39.00
2022-12-19T07:33:34.077Z,41.15
2022-12-19T07:36:00.867Z,42.15
2022-12-19T07:38:27.697Z,39.97
2022-12-19T07:40:54.429Z,37.70
2022-12-19T07:43:21.260Z,43.03
2022-12-19T07:45:54.658Z,39.90
2022-12-19T07:48:21.526Z,41.85
2022-12-19T07:50:49.262Z,37.03
2022-12-19T07:53:16.688Z,40.33
2022-12-19T07:55:43.518Z,39.97
2022-12-19T07:58:11.292Z,37.60
2022-12-19T08:00:38.428Z,42.28
2022-12-19T08:03:05.323Z,38.75
2022-12-19T08:05:34.846Z,40.60
2022-12-19T08:08:01.672Z,38.33
2022-12-19T08:10:28.520Z,39.85
2022-12-19T08:12:55.626Z,39.40
2022-12-19T08:15:22.566Z,39.35
2022-12-19T08:17:49.557Z,40.85
2022-12-19T08:20:16.379Z,43.13
2022-12-19T08:22:43.438Z,38.88
2022-12-19T08:25:10.369Z,40.40
2022-12-19T08:27:37.909Z,41.63
2022-12-19T08:30:05.687Z,44.53
2022-12-19T08:32:32.854Z,43.20
2022-12-19T08:34:59.872Z,39.78
2022-12-19T08:37:26.804Z,40.50
2022-12-19T08:39:53.565Z,43.38
2022-12-19T08:42:20.341Z,43.85
2022-12-19T08:44:47.130Z,40.90
2022-12-19T08:47:14.176Z,43.38
2022-12-19T08:49:41.350Z,46.10
2022-12-19T08:52:08.207Z,46.15
2022-12-19T08:54:35.181Z,44.00
2022-12-19T08:57:01.929Z,42.83
2022-12-19T08:59:31.830Z,44.00
2022-12-19T09:02:00.877Z,46.50
2022-12-19T09:06:00.267Z,47.03
2022-12-19T09:07:16.292Z,45.78
2022-12-19T09:09:44.329Z,50.45
2022-12-19T09:12:13.022Z,62.80
2022-12-19T09:14:39.839Z,73.53
2022-12-19T09:17:06.860Z,76.72
2022-12-19T09:19:33.885Z,55.25
2022-12-19T09:22:00.657Z,54.17
2022-12-19T09:24:27.563Z,50.97
2022-12-19T09:26:54.421Z,47.55
2022-12-19T09:29:21.977Z,50.50
2022-12-19T09:31:55.412Z,55.38
2022-12-19T09:34:36.900Z,50.85
2022-12-19T09:37:16.087Z,47.50
2022-12-19T09:39:45.401Z,67.13
2022-12-19T09:42:21.654Z,53.13
2022-12-19T09:45:05.927Z,47.45
2022-12-19T09:47:34.949Z,53.15
2022-12-19T09:50:02.130Z,56.90
2022-12-19T09:52:44.037Z,55.97
2022-12-19T09:55:25.126Z,53.10
2022-12-19T09:57:59.833Z,49.28
2022-12-19T10:00:35.466Z,52.53
2022-12-19T10:03:14.381Z,48.05
2022-12-19T10:07:06.790Z,51.78
2022-12-19T10:09:17.094Z,49.60
2022-12-19T10:12:47.795Z,54.10
2022-12-19T10:15:12.534Z,48.83
2022-12-19T10:18:27.067Z,46.78
2022-12-19T10:21:37.025Z,50.25
2022-12-19T10:24:38.347Z,44.35
2022-12-19T10:27:36.559Z,47.22
2022-12-19T10:30:16.917Z,44.38
2022-12-19T10:33:25.649Z,46.28
2022-12-19T10:36:02.218Z,48.88
2022-12-19T10:38:35.071Z,70.15
2022-12-19T10:44:08.127Z,54.25
2022-12-19T10:54:51.597Z,52.28
2022-12-19T10:57:28.472Z,51.08
2022-12-19T11:00:05.076Z,55.88
2022-12-19T11:02:41.491Z,57.70
2022-12-19T11:05:30.902Z,52.17
2022-12-19T11:08:14.971Z,49.08
2022-12-19T11:12:25.266Z,58.10
2022-12-19T11:18:09.784Z,52.88
2022-12-19T11:22:13.539Z,52.25
2022-12-19T11:29:26.119Z,47.72
2022-12-19T11:29:53.409Z,49.85
2022-12-19T11:30:09.085Z,48.85
2022-12-19T11:30:38.459Z,50.53
2022-12-19T11:32:31.510Z,48.17
2022-12-19T11:34:19.102Z,50.72
2022-12-19T11:37:16.267Z,50.08
2022-12-19T11:39:47.972Z,52.85
2022-12-19T11:42:26.160Z,50.30
2022-12-19T11:45:01.724Z,58.08
2022-12-19T11:47:38.811Z,50.72
2022-12-19T11:50:27.728Z,56.38
2022-12-19T11:53:24.055Z,57.92
2022-12-19T11:56:16.276Z,60.92
2022-12-19T11:58:49.211Z,53.55
2022-12-19T12:01:43.584Z,54.38
2022-12-19T12:04:29.061Z,55.08
2022-12-19T12:06:56.919Z,52.80
2022-12-19T12:13:47.757Z,51.72
2022-12-19T12:20:18.504Z,53.35
2022-12-19T12:25:13.488Z,53.88
2022-12-19T12:31:15.116Z,48.53
2022-12-19T12:31:26.509Z,51.65
2022-12-19T12:31:53.469Z,54.42
2022-12-19T12:32:02.054Z,51.60
2022-12-19T12:38:37.164Z,53.80
2022-12-19T12:41:42.387Z,52.25
2022-12-19T12:44:12.036Z,53.20
2022-12-19T12:47:22.210Z,51.10
2022-12-19T12:50:01.255Z,54.20
2022-12-19T12:52:39.836Z,52.17
2022-12-19T12:55:15.848Z,57.33
2022-12-19T12:57:42.713Z,50.88
2022-12-19T13:00:20.533Z,51.00
2022-12-19T13:02:54.466Z,56.05
2022-12-19T13:08:01.285Z,51.95
2022-12-19T13:10:30.583Z,50.03
2022-12-19T13:13:14.604Z,48.42
2022-12-19T13:15:46.140Z,52.85
2022-12-19T13:18:16.159Z,50.33
2022-12-19T13:20:46.200Z,50.10
2022-12-19T13:23:58.231Z,53.63
2022-12-19T13:26:46.727Z,53.25
2022-12-19T13:29:28.098Z,50.35
2022-12-19T13:32:12.832Z,56.20
2022-12-19T13:34:41.575Z,54.83
2022-12-19T13:39:55.755Z,51.47
2022-12-19T13:40:33.476Z,60.45
2022-12-19T13:43:48.095Z,63.60
2022-12-19T13:46:45.091Z,49.83
2022-12-19T13:49:17.778Z,51.55
2022-12-19T13:51:52.500Z,52.45
2022-12-19T13:54:26.155Z,49.83
2022-12-19T13:56:53.871Z,47.05
2022-12-19T13:59:22.788Z,51.97
2022-12-19T14:01:51.478Z,50.92
2022-12-19T14:04:32.504Z,49.72
2022-12-19T14:07:04.701Z,51.00
2022-12-19T14:11:28.879Z,51.45
2022-12-19T14:13:46.228Z,49.38
2022-12-19T14:15:41.690Z,48.00
2022-12-19T14:18:42.754Z,43.03
2022-12-19T14:22:10.961Z,51.63
2022-12-19T14:24:24.423Z,50.63
2022-12-19T14:28:24.278Z,51.55
2022-12-19T14:30:27.558Z,53.88
2022-12-19T14:33:43.767Z,46.20
2022-12-19T14:36:06.158Z,49.92
2022-12-19T14:39:21.194Z,47.13
2022-12-19T14:41:08.223Z,49.30
2022-12-19T14:43:59.059Z,52.45
2022-12-19T14:54:08.628Z,49.90
2022-12-19T14:54:09.038Z,52.95
2022-12-19T14:54:50.452Z,53.47
2022-12-19T14:56:13.131Z,49.67
2022-12-19T14:58:56.225Z,49.10
2022-12-19T15:01:36.567Z,49.72
2022-12-19T15:04:48.163Z,51.47
2022-12-19T15:07:08.033Z,49.65
2022-12-19T15:11:00.283Z,52.50
2022-12-19T15:14:54.652Z,53.00
2022-12-19T15:16:06.299Z,54.67
2022-12-19T15:18:42.870Z,61.42
2022-12-19T15:21:14.656Z,60.45
2022-12-19T15:23:42.292Z,56.05
2022-12-19T15:26:16.164Z,55.38
2022-12-19T15:28:53.550Z,57.20
2022-12-19T15:31:40.044Z,51.28
2022-12-19T15:34:48.374Z,49.85
2022-12-19T15:37:15.519Z,51.03
2022-12-19T15:39:43.475Z,49.17
2022-12-19T15:42:22.933Z,53.13
2022-12-19T15:44:50.109Z,53.15
2022-12-19T15:47:20.007Z,56.03
2022-12-19T15:49:47.364Z,62.83
2022-12-19T15:52:19.136Z,69.60
2022-12-19T15:54:48.556Z,58.65
2022-12-19T15:57:42.229Z,61.00
2022-12-19T16:00:32.296Z,54.72
2022-12-19T16:03:22.898Z,56.47
2022-12-19T16:05:51.789Z,59.60
2022-12-19T16:08:21.073Z,53.95
2022-12-19T16:10:56.014Z,47.65
2022-12-19T16:13:31.085Z,50.78
2022-12-19T16:15:58.331Z,49.17
2022-12-19T16:18:25.315Z,51.45
2022-12-19T16:20:52.191Z,56.20
2022-12-19T16:23:19.718Z,55.10
2022-12-19T16:25:50.684Z,71.57
2022-12-19T16:28:26.935Z,61.50
2022-12-19T16:30:56.639Z,80.85
2022-12-19T16:33:25.780Z,76.25
2022-12-19T16:36:03.942Z,78.68
2022-12-19T16:38:31.385Z,77.20
2022-12-19T16:40:58.246Z,71.60
2022-12-19T16:43:36.393Z,71.90
2022-12-19T16:46:06.112Z,71.47
2022-12-19T16:48:35.860Z,65.18
2022-12-19T16:51:03.027Z,58.08
2022-12-19T16:53:30.059Z,61.80
2022-12-19T16:55:57.652Z,56.50
2022-12-19T16:58:26.975Z,53.10
2022-12-19T17:00:57.454Z,58.58
2022-12-19T17:03:36.524Z,54.97
2022-12-19T17:06:04.106Z,58.53
2022-12-19T17:08:32.541Z,55.90
2022-12-19T17:10:59.395Z,61.25
2022-12-19T17:13:26.546Z,57.40
2022-12-19T17:15:57.057Z,57.58
2022-12-19T17:18:28.837Z,55.97
2022-12-19T17:20:55.667Z,53.85
2022-12-19T17:23:24.100Z,56.85
2022-12-19T17:25:51.170Z,54.20
2022-12-19T17:28:18.367Z,52.72
2022-12-19T17:30:50.220Z,55.78
2022-12-19T17:33:17.649Z,55.22
2022-12-19T17:35:45.152Z,54.72
2022-12-19T17:38:17.251Z,77.47
2022-12-19T17:40:44.169Z,67.05
2022-12-19T17:43:12.800Z,63.30
2022-12-19T17:45:39.782Z,64.57
2022-12-19T17:48:14.894Z,62.78
2022-12-19T17:50:42.153Z,58.00
2022-12-19T17:53:14.154Z,61.50
2022-12-19T17:55:41.859Z,58.10
2022-12-19T17:58:10.197Z,60.58
2022-12-19T18:00:37.418Z,64.43
2022-12-19T18:03:16.911Z,56.53
2022-12-19T18:05:43.935Z,65.20
2022-12-19T18:08:43.255Z,63.20
2022-12-19T18:11:28.357Z,59.33
2022-12-19T18:13:55.334Z,59.25
2022-12-19T18:16:27.272Z,63.47
2022-12-19T18:18:54.387Z,60.13
2022-12-19T18:21:24.388Z,57.60
2022-12-19T18:23:54.183Z,62.28
2022-12-19T18:26:20.870Z,57.60
2022-12-19T18:28:48.003Z,57.20
2022-12-19T18:31:26.067Z,56.28
2022-12-19T18:33:54.434Z,55.15
2022-12-19T18:36:22.871Z,60.50
2022-12-19T18:38:50.153Z,56.78
2022-12-19T18:41:18.318Z,67.85
2022-12-19T18:43:45.638Z,65.20
2022-12-19T18:46:15.339Z,62.25
2022-12-19T18:48:44.082Z,66.07
2022-12-19T18:51:19.238Z,61.45
2022-12-19T18:53:46.692Z,63.53
2022-12-19T18:56:13.771Z,63.75
2022-12-19T18:58:40.910Z,62.33
2022-12-19T19:01:12.995Z,62.75
2022-12-19T19:03:40.534Z,66.50
2022-12-19T19:06:18.616Z,68.97
2022-12-19T19:08:45.769Z,63.53
2022-12-19T19:11:12.786Z,62.28
2022-12-19T19:13:39.472Z,63.75
2022-12-19T19:16:20.981Z,60.33
2022-12-19T19:18:51.472Z,68.18
2022-12-19T19:21:19.321Z,61.70
2022-12-19T19:23:50.019Z,62.88
2022-12-19T19:26:16.762Z,66.15
2022-12-19T19:28:48.573Z,58.70
2022-12-19T19:31:20.523Z,62.22
2022-12-19T19:33:51.192Z,65.43
2022-12-19T19:36:20.961Z,68.13
2022-12-19T19:38:50.368Z,67.35
2022-12-19T19:41:21.284Z,68.00
2022-12-19T19:43:48.017Z,90.10
2022-12-19T19:46:14.922Z,79.60
2022-12-19T19:48:42.835Z,73.00
2022-12-19T19:51:09.701Z,68.93
2022-12-19T19:53:36.565Z,67.63
2022-12-19T19:56:05.047Z,63.13
2022-12-19T19:58:32.331Z,66.32
2022-12-19T20:00:59.163Z,62.75
2022-12-19T20:03:26.560Z,60.72
2022-12-19T20:06:02.258Z,58.63
2022-12-19T20:08:36.855Z,60.47
2022-12-19T20:11:06.079Z,58.03
2022-12-19T20:13:33.183Z,61.45
2022-12-19T20:16:11.844Z,57.03
2022-12-19T20:18:41.582Z,62.60
2022-12-19T20:21:12.961Z,61.22
2022-12-19T20:23:41.148Z,54.03
2022-12-19T20:26:08.303Z,59.83
2022-12-19T20:28:35.204Z,57.65
2022-12-19T20:31:02.096Z,57.15
2022-12-19T20:33:28.931Z,57.35
2022-12-19T20:35:57.069Z,58.42
2022-12-19T20:38:24.395Z,53.55
2022-12-19T20:40:56.075Z,61.65
2022-12-19T20:43:23.707Z,58.58
2022-12-19T20:45:50.802Z,58.53
2022-12-19T20:48:17.917Z,62.80
2022-12-19T20:50:44.876Z,60.42
2022-12-19T20:53:11.819Z,53.55
2022-12-19T20:55:38.623Z,60.70
2022-12-19T20:58:05.395Z,55.22
2022-12-19T21:00:32.339Z,54.10
2022-12-19T21:03:27.206Z,57.17
2022-12-19T21:05:53.771Z,57.05
2022-12-19T21:08:24.658Z,55.13
2022-12-19T21:10:51.625Z,53.30
2022-12-19T21:13:18.444Z,54.83
2022-12-19T21:15:45.564Z,57.50
2022-12-19T21:18:12.531Z,53.88
2022-12-19T21:20:39.335Z,58.25
2022-12-19T21:23:06.075Z,54.63
2022-12-19T21:25:32.803Z,56.50
2022-12-19T21:27:59.613Z,57.00
2022-12-19T21:30:26.336Z,55.15
2022-12-19T21:32:53.041Z,56.63
2022-12-19T21:35:19.744Z,50.70
2022-12-19T21:37:50.278Z,52.95
2022-12-19T21:40:20.566Z,53.05
2022-12-19T21:42:47.695Z,53.65
2022-12-19T21:45:15.240Z,52.55
2022-12-19T21:47:43.211Z,55.30
2022-12-19T21:50:12.589Z,50.22
2022-12-19T21:52:39.385Z,51.55
2022-12-19T21:55:07.526Z,54.05
2022-12-19T21:57:38.956Z,53.78
2022-12-19T22:00:07.479Z,55.00
2022-12-19T22:02:34.442Z,49.47
2022-12-19T22:05:01.441Z,51.45
2022-12-19T22:07:28.186Z,54.85
2022-12-19T22:09:55.740Z,54.08
2022-12-19T22:12:22.455Z,52.67
2022-12-19T22:14:49.160Z,57.42
2022-12-19T22:17:16.009Z,56.05
2022-12-19T22:19:42.829Z,54.85
2022-12-19T22:22:09.503Z,50.67
2022-12-19T22:24:36.527Z,52.50
2022-12-19T22:27:03.213Z,53.10
2022-12-19T22:29:30.071Z,53.08
2022-12-19T22:31:56.874Z,56.50
2022-12-19T22:34:23.574Z,60.75
2022-12-19T22:36:50.345Z,57.05
2022-12-19T22:39:19.225Z,54.05
2022-12-19T22:41:46.241Z,55.63
2022-12-19T22:44:19.251Z,56.85
2022-12-19T22:46:46.339Z,55.28
2022-12-19T22:49:14.180Z,55.00
2022-12-19T22:51:41.547Z,52.28
2022-12-19T22:54:08.445Z,56.28
2022-12-19T22:56:35.684Z,54.75
2022-12-19T22:59:05.531Z,56.97
2022-12-19T23:01:38.794Z,59.33
2022-12-19T23:04:07.196Z,56.08
2022-12-19T23:06:35.908Z,60.05
2022-12-19T23:09:03.724Z,57.20
2022-12-19T23:11:36.720Z,53.78
2022-12-19T23:14:08.194Z,54.65
2022-12-19T23:16:35.344Z,55.85
2022-12-19T23:19:02.741Z,56.25
2022-12-19T23:21:30.842Z,52.63
2022-12-19T23:23:57.559Z,53.00
2022-12-19T23:26:30.450Z,51.35
2022-12-19T23:29:02.477Z,54.63
2022-12-19T23:31:30.087Z,52.63
2022-12-19T23:33:57.610Z,53.90
2022-12-19T23:36:52.695Z,59.78
2022-12-19T23:39:12.074Z,55.20
2022-12-19T23:41:39.581Z,51.42
2022-12-19T23:44:08.888Z,50.40
2022-12-19T23:46:38.725Z,50.78
2022-12-19T23:49:05.882Z,51.22
2022-12-19T23:51:32.956Z,51.22
2022-12-19T23:53:59.691Z,53.95
2022-12-19T23:56:28.782Z,53.40
2022-12-19T23:58:55.866Z,49.78
